Portada
METAR-TAF:

METAR-TAF

Aeroports :

Bamako, Mali

latitud: 12-32N, longitud: 007-57W, altitud: 380 m

Observació

L'informe es va fer fa 35 minuts, a les 00:30 UTC
Vent 5 kt del Nord/Nord-Est
Temperatura 19°C
Humitat 30%
Pressió 1015 hPa
Visibilitat: 8000 m

METAR: GABS 200030Z 02005KT 8000 NSC 19/01 Q1015 NOSIG

Hora: 01:05 (01:05 UTC)

Pronòstic

L'informe es va fer fa 2 hores i 5 minuts, a les 23:00 UTC
Pronòstic vàlid del 20 a les 00 UTC al 21 a les 06 UTC
Vent 6 kt del Nord
Visibilitat: 8000 m

TAF: GABS 192300Z 2000/2106 01006KT 8000 NSC

Observacions i pronòstics meteorològics de més de 4000 aeroports (METAR i TAF).

Les estacions disponibles són els punts grocs i vermells al mapa.

Posi el ratolí al punt desitjat per veure el nom de l'estació.

Feu clic per veure les observacions i els pronòstics meteorològics.

Per canviar el mapa: feu clic els botons verds amb una creu de color negre per apropar; al botó verd amb un guió per allunyar la imatge; o en les fletxes verdes per a mapes adjacents.


METAR-TAF: